createdAt,value
2019-05-05T00:01:29.030Z,100727.74
2019-05-05T00:04:15.988Z,100733.03
2019-05-05T00:06:44.665Z,100738.59
2019-05-05T00:09:14.612Z,100734.89
2019-05-05T00:12:00.488Z,100730.38
2019-05-05T00:14:39.720Z,100738.67
2019-05-05T00:17:14.441Z,100746.81
2019-05-05T00:19:42.813Z,100747.09
2019-05-05T00:22:11.318Z,100750.32
2019-05-05T00:24:40.097Z,100750.32
2019-05-05T00:27:08.891Z,100756.91
2019-05-05T00:29:37.240Z,100751.09
2019-05-05T00:32:05.855Z,100760.72
2019-05-05T00:34:34.959Z,100757.52
2019-05-05T00:37:04.673Z,100760.17
2019-05-05T00:39:34.528Z,100758.50
2019-05-05T00:42:04.813Z,100759.52
2019-05-05T00:44:35.244Z,100766.80
2019-05-05T00:47:16.995Z,100763.15
2019-05-05T00:49:49.330Z,100764.42
2019-05-05T00:52:17.093Z,100763.50
2019-05-05T00:54:45.547Z,100765.82
2019-05-05T00:57:14.979Z,100766.45
2019-05-05T00:59:45.232Z,100768.11
2019-05-05T01:02:27.765Z,100765.75
2019-05-05T01:04:57.845Z,100762.12
2019-05-05T01:07:26.369Z,100760.45
2019-05-05T01:09:54.719Z,100773.91
2019-05-05T01:12:24.374Z,100771.38
2019-05-05T01:14:52.811Z,100773.95
2019-05-05T01:17:21.314Z,100772.28
2019-05-05T01:20:01.106Z,100777.52
2019-05-05T01:22:20.003Z,100781.01
2019-05-05T01:24:48.705Z,100785.94
2019-05-05T01:27:17.212Z,100791.38
2019-05-05T01:29:45.660Z,100797.38
2019-05-05T01:32:15.813Z,100800.31
2019-05-05T01:34:45.911Z,100804.95
2019-05-05T01:37:16.151Z,100814.55
2019-05-05T01:39:46.194Z,100814.03
2019-05-05T01:42:16.465Z,100821.78
2019-05-05T01:44:44.978Z,100827.42
2019-05-05T01:47:14.795Z,100831.72
2019-05-05T01:49:45.257Z,100836.33
2019-05-05T01:52:14.900Z,100835.34
2019-05-05T01:54:44.659Z,100840.93
2019-05-05T01:57:14.801Z,100846.02
2019-05-05T01:59:44.756Z,100860.53
2019-05-05T02:02:14.602Z,100866.56
2019-05-05T02:04:44.714Z,100865.06
2019-05-05T02:07:14.495Z,100871.75
2019-05-05T02:09:44.820Z,100880.67
2019-05-05T02:12:15.195Z,100881.30
2019-05-05T02:14:44.902Z,100881.64
2019-05-05T02:17:14.412Z,100882.33
2019-05-05T02:19:44.330Z,100884.56
2019-05-05T02:22:14.642Z,100881.42
2019-05-05T02:24:44.427Z,100883.52
2019-05-05T02:27:14.556Z,100884.97
2019-05-05T02:29:47.684Z,100884.97
2019-05-05T02:32:17.740Z,100883.92
2019-05-05T02:34:48.122Z,100883.17
2019-05-05T02:37:16.642Z,100884.77
2019-05-05T02:39:57.235Z,100886.19
2019-05-05T02:42:16.117Z,100892.89
2019-05-05T02:44:45.759Z,100894.36
2019-05-05T02:47:19.159Z,100905.64
2019-05-05T02:49:48.032Z,100908.73
2019-05-05T02:52:17.961Z,100908.25
2019-05-05T02:54:46.317Z,100910.81
2019-05-05T02:57:15.347Z,100915.48
2019-05-05T02:59:45.663Z,100919.80
2019-05-05T03:02:23.595Z,100924.05
2019-05-05T03:04:53.634Z,100918.21
2019-05-05T03:07:25.054Z,100920.23
2019-05-05T03:09:54.549Z,100920.77
2019-05-05T03:12:24.335Z,100921.13
2019-05-05T03:14:53.806Z,100927.88
2019-05-05T03:17:23.440Z,100936.02
2019-05-05T03:19:53.597Z,100935.34
2019-05-05T03:22:23.684Z,100938.00
2019-05-05T03:24:54.150Z,100947.30
2019-05-05T03:27:23.738Z,100949.40
2019-05-05T03:29:53.541Z,100957.39
2019-05-05T03:32:25.566Z,100957.11
2019-05-05T03:34:53.694Z,100958.92
2019-05-05T03:37:25.044Z,100962.83
2019-05-05T03:39:55.537Z,100961.51
2019-05-05T03:42:28.392Z,100959.25
2019-05-05T03:44:58.770Z,100961.61
2019-05-05T03:47:28.899Z,100968.87
2019-05-05T03:49:57.352Z,100968.22
2019-05-05T03:52:26.093Z,100970.25
2019-05-05T03:54:56.681Z,100975.55
2019-05-05T03:57:25.083Z,100984.31
2019-05-05T03:59:54.721Z,100987.19
2019-05-05T04:02:28.045Z,100991.28
2019-05-05T04:05:04.127Z,100993.34
2019-05-05T04:07:33.477Z,100989.48
2019-05-05T04:10:03.756Z,100998.02
2019-05-05T04:12:34.583Z,100997.80
2019-05-05T04:15:04.400Z,100999.28
2019-05-05T04:17:34.854Z,100995.16
2019-05-05T04:20:21.165Z,101001.47
2019-05-05T04:22:49.941Z,101003.25
2019-05-05T04:25:18.372Z,101002.89
2019-05-05T04:27:46.819Z,101009.09
2019-05-05T04:30:15.696Z,101008.12
2019-05-05T04:32:44.308Z,101015.34
2019-05-05T04:35:14.049Z,101023.76
2019-05-05T04:37:43.767Z,101019.05
2019-05-05T04:40:14.811Z,101020.50
2019-05-05T04:42:44.105Z,101022.95
2019-05-05T04:45:14.797Z,101021.83
2019-05-05T04:47:44.964Z,101022.24
2019-05-05T04:50:29.883Z,101020.41
2019-05-05T04:52:59.911Z,101025.05
2019-05-05T04:55:28.348Z,101028.41
2019-05-05T04:57:56.783Z,101030.44
2019-05-05T05:00:25.545Z,101026.92
2019-05-05T05:02:58.304Z,101027.63
2019-05-05T05:05:28.547Z,101031.66
2019-05-05T05:07:58.080Z,101028.83
2019-05-05T05:10:26.672Z,101025.82
2019-05-05T05:12:55.124Z,101025.30
2019-05-05T05:15:24.026Z,101028.01
2019-05-05T05:18:04.089Z,101033.52
2019-05-05T05:20:34.015Z,101034.63
2019-05-05T05:23:03.648Z,101032.43
2019-05-05T05:25:32.159Z,101033.19
2019-05-05T05:28:00.571Z,101036.61
2019-05-05T05:30:28.933Z,101028.80
2019-05-05T05:32:57.403Z,101035.91
2019-05-05T05:35:25.835Z,101033.84
2019-05-05T05:37:57.398Z,101032.30
2019-05-05T05:40:26.130Z,101038.00
2019-05-05T05:42:54.559Z,101045.09
2019-05-05T05:45:27.921Z,101055.20
2019-05-05T05:48:09.697Z,101051.27
2019-05-05T05:50:44.330Z,101052.38
2019-05-05T05:53:13.945Z,101054.39
2019-05-05T05:55:44.650Z,101055.00
2019-05-05T05:58:14.081Z,101053.80
2019-05-05T06:00:44.293Z,101062.05
2019-05-05T06:03:14.100Z,101072.14
2019-05-05T06:05:43.558Z,101072.25
2019-05-05T06:08:14.212Z,101070.78
2019-05-05T06:10:44.291Z,101080.31
2019-05-05T06:13:15.308Z,101082.56
2019-05-05T06:15:44.409Z,101080.10
2019-05-05T06:18:13.947Z,101085.69
2019-05-05T06:20:44.477Z,101091.92
2019-05-05T06:23:14.759Z,101094.58
2019-05-05T06:25:44.463Z,101094.42
2019-05-05T06:28:14.475Z,101092.44
2019-05-05T06:30:44.308Z,101095.55
2019-05-05T06:33:13.757Z,101091.08
2019-05-05T06:35:44.371Z,101099.17
2019-05-05T06:38:13.603Z,101094.73
2019-05-05T06:40:44.509Z,101093.52
2019-05-05T06:43:14.581Z,101092.39
2019-05-05T06:45:44.676Z,101098.63
2019-05-05T06:48:13.533Z,101101.69
2019-05-05T06:50:43.710Z,101099.59
2019-05-05T06:53:13.548Z,101102.63
2019-05-05T06:55:44.278Z,101107.88
2019-05-05T06:58:13.664Z,101107.27
2019-05-05T07:00:44.096Z,101115.13
2019-05-05T07:03:13.937Z,101106.30
2019-05-05T07:05:43.691Z,101103.82
2019-05-05T07:08:13.751Z,101100.77
2019-05-05T07:10:44.480Z,101110.33
2019-05-05T07:13:13.991Z,101108.53
2019-05-05T07:15:43.727Z,101106.61
2019-05-05T07:18:14.263Z,101103.35
2019-05-05T07:20:44.084Z,101105.38
2019-05-05T07:23:14.483Z,101100.69
2019-05-05T07:25:45.775Z,101103.62
2019-05-05T07:28:14.752Z,101105.59
2019-05-05T07:30:44.232Z,101099.09
2019-05-05T07:33:14.739Z,101103.88
2019-05-05T07:35:56.815Z,101100.70
2019-05-05T07:38:17.604Z,101105.34
2019-05-05T07:40:46.062Z,101102.70
2019-05-05T07:43:14.771Z,101100.53
2019-05-05T07:45:44.584Z,101105.06
2019-05-05T07:48:13.833Z,101106.00
2019-05-05T07:50:45.015Z,101109.03
2019-05-05T07:53:17.501Z,101114.42
2019-05-05T07:55:43.709Z,101114.80
2019-05-05T07:58:13.879Z,101114.55
2019-05-05T08:00:43.667Z,101118.56
2019-05-05T08:03:14.310Z,101124.86
2019-05-05T08:05:44.232Z,101127.78
2019-05-05T08:08:13.925Z,101121.41
2019-05-05T08:10:43.707Z,101126.36
2019-05-05T08:13:14.105Z,101121.64
2019-05-05T08:15:56.247Z,101129.63
2019-05-05T08:18:18.975Z,101118.34
2019-05-05T08:20:49.095Z,101120.23
2019-05-05T08:23:29.001Z,101123.46
2019-05-05T08:25:50.890Z,101121.09
2019-05-05T08:28:21.072Z,101118.89
2019-05-05T08:31:03.976Z,101121.56
2019-05-05T08:33:33.578Z,101125.22
2019-05-05T08:36:04.605Z,101123.22
2019-05-05T08:38:34.601Z,101129.39
2019-05-05T08:41:04.586Z,101126.28
2019-05-05T08:43:34.751Z,101125.75
2019-05-05T08:46:04.942Z,101132.73
2019-05-05T08:48:34.215Z,101141.52
2019-05-05T08:51:04.847Z,101135.55
2019-05-05T08:53:42.563Z,101143.33
2019-05-05T08:56:04.050Z,101149.71
2019-05-05T08:58:34.405Z,101149.84
2019-05-05T09:01:04.356Z,101138.05
2019-05-05T09:03:33.806Z,101138.59
2019-05-05T09:06:04.531Z,101138.52
2019-05-05T09:08:34.612Z,101150.19
2019-05-05T09:11:04.786Z,101148.43
2019-05-05T09:13:34.009Z,101154.73
2019-05-05T09:16:03.804Z,101145.19
2019-05-05T09:18:33.953Z,101141.89
2019-05-05T09:21:04.357Z,101137.20
2019-05-05T09:23:58.239Z,101136.54
2019-05-05T09:26:18.102Z,101147.27
2019-05-05T09:28:48.238Z,101137.79
2019-05-05T09:31:16.837Z,101148.53
2019-05-05T09:33:45.579Z,101138.80
2019-05-05T09:36:14.058Z,101132.30
2019-05-05T09:38:44.593Z,101146.84
2019-05-05T09:41:14.361Z,101145.65
2019-05-05T09:43:44.645Z,101147.73
2019-05-05T09:46:14.371Z,101147.73
2019-05-05T09:48:44.043Z,101153.20
2019-05-05T09:51:13.644Z,101148.00
2019-05-05T09:53:44.612Z,101142.13
2019-05-05T09:56:14.437Z,101139.22
2019-05-05T09:58:44.067Z,101144.77
2019-05-05T10:01:14.034Z,101150.47
2019-05-05T10:03:44.233Z,101158.47
2019-05-05T10:06:14.242Z,101156.59
2019-05-05T10:08:44.682Z,101156.95
2019-05-05T10:11:16.381Z,101162.75
2019-05-05T10:13:44.301Z,101161.95
2019-05-05T10:16:14.288Z,101167.89
2019-05-05T10:18:44.680Z,101163.70
2019-05-05T10:21:13.832Z,101157.66
2019-05-05T10:23:44.161Z,101162.16
2019-05-05T10:26:14.790Z,101160.64
2019-05-05T10:28:44.477Z,101160.78
2019-05-05T10:31:13.851Z,101166.55
2019-05-05T10:33:44.385Z,101162.59
2019-05-05T10:36:13.816Z,101155.59
2019-05-05T10:38:44.569Z,101150.75
2019-05-05T10:41:13.526Z,101147.09
2019-05-05T10:43:43.737Z,101153.48
2019-05-05T10:46:14.224Z,101145.65
2019-05-05T10:48:44.454Z,101157.27
2019-05-05T10:51:12.699Z,101153.80
2019-05-05T10:53:41.111Z,101154.17
2019-05-05T10:56:09.552Z,101144.97
2019-05-05T10:58:38.028Z,101145.92
2019-05-05T11:01:06.903Z,101144.48
2019-05-05T11:03:35.371Z,101147.81
2019-05-05T11:06:04.581Z,101151.44
2019-05-05T11:08:34.782Z,101148.59
2019-05-05T11:11:04.264Z,101148.64
2019-05-05T11:13:34.441Z,101149.70
2019-05-05T11:16:03.972Z,101151.47
2019-05-05T11:18:34.497Z,101154.17
2019-05-05T11:21:03.997Z,101156.65
2019-05-05T11:23:34.577Z,101156.89
2019-05-05T11:26:03.047Z,101152.27
2019-05-05T11:28:31.432Z,101155.19
2019-05-05T11:30:59.886Z,101159.33
2019-05-05T11:33:35.839Z,101156.64
2019-05-05T11:36:20.020Z,101155.31
2019-05-05T11:38:48.520Z,101153.33
2019-05-05T11:41:16.925Z,101161.12
2019-05-05T11:43:45.710Z,101160.47
2019-05-05T11:46:14.317Z,101159.34
2019-05-05T11:48:43.921Z,101158.25
2019-05-05T11:51:14.890Z,101161.58
2019-05-05T11:53:44.690Z,101157.64
2019-05-05T11:56:14.488Z,101161.77
2019-05-05T11:58:44.216Z,101154.38
2019-05-05T12:01:13.841Z,101147.58
2019-05-05T12:03:44.369Z,101154.86
2019-05-05T12:06:14.719Z,101152.98
2019-05-05T12:08:45.733Z,101139.06
2019-05-05T12:11:15.126Z,101155.47
2019-05-05T12:13:43.899Z,101159.41
2019-05-05T12:16:14.095Z,101165.14
2019-05-05T12:18:44.201Z,101162.80
2019-05-05T12:21:14.012Z,101165.73
2019-05-05T12:23:44.415Z,101169.80
2019-05-05T12:26:17.643Z,101168.48
2019-05-05T12:28:48.091Z,101177.32
2019-05-05T12:31:18.090Z,101171.67
2019-05-05T12:33:47.329Z,101178.05
2019-05-05T12:36:15.762Z,101172.02
2019-05-05T12:38:44.232Z,101180.24
2019-05-05T12:41:14.617Z,101176.73
2019-05-05T12:43:44.190Z,101178.22
2019-05-05T12:46:14.485Z,101169.75
2019-05-05T12:48:47.522Z,101165.07
2019-05-05T12:51:16.107Z,101170.24
2019-05-05T12:53:44.481Z,101161.26
2019-05-05T12:56:14.606Z,101168.73
2019-05-05T12:58:44.034Z,101168.83
2019-05-05T13:01:29.600Z,101165.07
2019-05-05T13:03:59.079Z,101160.61
2019-05-05T13:06:27.610Z,101157.24
2019-05-05T13:08:56.008Z,101161.16
2019-05-05T13:11:24.711Z,101157.13
2019-05-05T13:13:54.550Z,101159.34
2019-05-05T13:16:25.076Z,101159.09
2019-05-05T13:18:54.001Z,101156.23
2019-05-05T13:21:30.649Z,101158.00
2019-05-05T13:24:13.750Z,101157.78
2019-05-05T13:26:46.839Z,101151.73
2019-05-05T13:29:15.218Z,101155.22
2019-05-05T13:31:44.295Z,101152.16
2019-05-05T13:34:13.704Z,101156.27
2019-05-05T13:36:44.125Z,101153.99
2019-05-05T13:39:14.438Z,101152.01
2019-05-05T13:41:44.882Z,101151.35
2019-05-05T13:44:14.928Z,101152.83
2019-05-05T13:46:44.287Z,101150.48
2019-05-05T13:49:17.452Z,101151.77
2019-05-05T13:51:46.242Z,101155.14
2019-05-05T13:54:15.036Z,101152.01
2019-05-05T13:56:44.186Z,101153.25
2019-05-05T13:59:14.080Z,101149.67
2019-05-05T14:01:44.819Z,101149.77
2019-05-05T14:04:13.675Z,101145.59
2019-05-05T14:06:44.015Z,101145.28
2019-05-05T14:09:13.799Z,101146.32
2019-05-05T14:11:44.409Z,101147.81
2019-05-05T14:14:13.780Z,101146.27
2019-05-05T14:16:44.651Z,101142.44
2019-05-05T14:19:14.664Z,101137.72
2019-05-05T14:21:44.618Z,101144.69
2019-05-05T14:24:17.697Z,101143.28
2019-05-05T14:26:46.145Z,101139.94
2019-05-05T14:29:16.280Z,101139.84
2019-05-05T14:31:45.354Z,101139.28
2019-05-05T14:34:21.211Z,101146.91
2019-05-05T14:36:53.401Z,101140.90
2019-05-05T14:39:23.795Z,101147.98
2019-05-05T14:41:53.833Z,101139.33
2019-05-05T14:44:24.048Z,101141.94
2019-05-05T14:46:52.902Z,101143.47
2019-05-05T14:49:21.368Z,101151.44
2019-05-05T14:51:49.876Z,101142.97
2019-05-05T14:54:18.556Z,101145.48
2019-05-05T14:56:46.993Z,101144.19
2019-05-05T14:59:15.716Z,101141.33
2019-05-05T15:01:44.766Z,101141.86
2019-05-05T15:04:15.015Z,101140.81
2019-05-05T15:06:47.921Z,101142.54
2019-05-05T15:09:26.728Z,101139.03
2019-05-05T15:12:14.328Z,101141.79
2019-05-05T15:14:43.970Z,101141.55
2019-05-05T15:17:14.164Z,101146.27
2019-05-05T15:19:43.570Z,101137.17
2019-05-05T15:22:14.856Z,101140.33
2019-05-05T15:24:44.137Z,101141.16
2019-05-05T15:27:12.958Z,101138.98
2019-05-05T15:29:43.462Z,101144.22
2019-05-05T15:32:11.541Z,101144.00
2019-05-05T15:34:39.929Z,101143.57
2019-05-05T15:37:08.483Z,101143.69
2019-05-05T15:39:36.975Z,101139.55
2019-05-05T15:42:05.475Z,101144.09
2019-05-05T15:44:34.509Z,101148.44
2019-05-05T15:47:03.117Z,101139.40
2019-05-05T15:49:31.960Z,101142.20
2019-05-05T15:52:00.449Z,101146.61
2019-05-05T15:54:28.882Z,101141.95
2019-05-05T15:57:05.321Z,101145.35
2019-05-05T15:59:27.509Z,101138.77
2019-05-05T16:01:56.030Z,101146.00
2019-05-05T16:04:24.476Z,101143.52
2019-05-05T16:06:54.098Z,101149.19
2019-05-05T16:09:22.909Z,101141.62
2019-05-05T16:11:54.415Z,101144.45
2019-05-05T16:14:23.823Z,101144.72
2019-05-05T16:16:56.831Z,101144.29
2019-05-05T16:19:28.096Z,101146.08
2019-05-05T16:21:58.458Z,101145.35
2019-05-05T16:24:28.597Z,101138.11
2019-05-05T16:26:57.011Z,101142.08
2019-05-05T16:29:25.363Z,101147.43
2019-05-05T16:31:53.892Z,101142.41
2019-05-05T16:34:23.526Z,101143.65
2019-05-05T16:36:54.454Z,101141.98
2019-05-05T16:39:22.698Z,101144.11
2019-05-05T16:41:51.180Z,101147.34
2019-05-05T16:44:19.637Z,101142.56
2019-05-05T16:46:48.087Z,101141.61
2019-05-05T16:49:16.531Z,101137.23
2019-05-05T16:52:00.799Z,101139.36
2019-05-05T16:54:33.640Z,101143.65
2019-05-05T16:57:03.938Z,101148.63
2019-05-05T16:59:34.123Z,101145.95
2019-05-05T17:02:04.741Z,101143.65
2019-05-05T17:04:35.524Z,101135.19
2019-05-05T17:07:04.078Z,101140.69
2019-05-05T17:09:34.450Z,101142.37
2019-05-05T17:12:13.953Z,101138.69
2019-05-05T17:14:44.426Z,101144.71
2019-05-05T17:17:20.590Z,101151.06
2019-05-05T17:19:50.683Z,101145.72
2019-05-05T17:22:20.819Z,101149.06
2019-05-05T17:24:49.340Z,101145.47
2019-05-05T17:27:17.747Z,101147.34
2019-05-05T17:29:46.279Z,101143.66
2019-05-05T17:32:14.784Z,101134.68
2019-05-05T17:34:44.893Z,101147.00
2019-05-05T17:37:13.540Z,101145.53
2019-05-05T17:39:43.805Z,101145.20
2019-05-05T17:42:14.211Z,101142.83
2019-05-05T17:44:44.448Z,101145.16
2019-05-05T17:47:20.594Z,101149.71
2019-05-05T17:50:06.789Z,101152.64
2019-05-05T17:52:53.766Z,101149.61
2019-05-05T17:55:33.798Z,101150.44
2019-05-05T17:58:02.889Z,101153.97
2019-05-05T18:00:34.294Z,101151.63
2019-05-05T18:03:04.378Z,101147.86
2019-05-05T18:05:54.529Z,101154.02
2019-05-05T18:08:36.772Z,101155.36
2019-05-05T18:11:09.890Z,101156.36
2019-05-05T18:13:45.384Z,101155.23
2019-05-05T18:16:15.488Z,101158.39
2019-05-05T18:18:44.479Z,101156.41
2019-05-05T18:21:14.246Z,101162.41
2019-05-05T18:23:43.847Z,101163.61
2019-05-05T18:26:13.667Z,101163.11
2019-05-05T18:28:44.331Z,101163.77
2019-05-05T18:31:13.872Z,101159.75
2019-05-05T18:33:42.688Z,101165.09
2019-05-05T18:36:11.178Z,101165.78
2019-05-05T18:38:39.569Z,101170.45
2019-05-05T18:41:20.376Z,101170.78
2019-05-05T18:43:59.383Z,101168.44
2019-05-05T18:46:27.827Z,101168.77
2019-05-05T18:48:56.625Z,101168.12
2019-05-05T18:51:25.511Z,101170.78
2019-05-05T18:53:55.051Z,101174.45
2019-05-05T18:56:24.010Z,101175.28
2019-05-05T18:58:54.259Z,101183.80
2019-05-05T19:01:30.229Z,101179.78
2019-05-05T19:04:04.249Z,101183.13
2019-05-05T19:06:37.607Z,101180.97
2019-05-05T19:09:10.851Z,101183.14
2019-05-05T19:11:39.590Z,101188.14
2019-05-05T19:14:08.047Z,101191.14
2019-05-05T19:16:36.421Z,101190.45
2019-05-05T19:19:05.078Z,101193.23
2019-05-05T19:21:41.408Z,101189.89
2019-05-05T19:24:10.032Z,101189.05
2019-05-05T19:26:38.411Z,101187.20
2019-05-05T19:29:06.969Z,101189.05
2019-05-05T19:31:36.574Z,101190.72
2019-05-05T19:34:05.386Z,101183.08
2019-05-05T19:36:34.288Z,101181.85
2019-05-05T19:39:04.116Z,101184.36
2019-05-05T19:41:34.770Z,101181.22
2019-05-05T19:44:04.696Z,101183.55
2019-05-05T19:46:47.424Z,101177.03
2019-05-05T19:49:17.143Z,101177.72
2019-05-05T19:51:46.639Z,101182.36
2019-05-05T19:54:15.167Z,101176.03
2019-05-05T19:56:44.720Z,101174.05
2019-05-05T19:59:13.840Z,101175.38
2019-05-05T20:01:44.824Z,101172.37
2019-05-05T20:04:14.666Z,101174.19
2019-05-05T20:06:44.257Z,101171.38
2019-05-05T20:09:14.125Z,101172.03
2019-05-05T20:11:43.734Z,101176.68
2019-05-05T20:14:14.843Z,101177.02
2019-05-05T20:17:04.334Z,101172.03
2019-05-05T20:19:34.713Z,101178.17
2019-05-05T20:22:03.245Z,101174.67
2019-05-05T20:24:33.528Z,101177.98
2019-05-05T20:27:01.863Z,101178.98
2019-05-05T20:29:30.234Z,101176.63
2019-05-05T20:31:58.696Z,101177.62
2019-05-05T20:34:33.911Z,101175.61
2019-05-05T20:37:09.228Z,101182.92
2019-05-05T20:39:38.534Z,101178.23
2019-05-05T20:42:08.402Z,101180.38
2019-05-05T20:44:37.517Z,101177.17
2019-05-05T20:47:05.962Z,101176.10
2019-05-05T20:49:34.977Z,101180.79
2019-05-05T20:52:03.817Z,101177.62
2019-05-05T20:54:32.443Z,101183.49
2019-05-05T20:57:00.942Z,101185.73
2019-05-05T20:59:31.005Z,101176.88
2019-05-05T21:01:59.950Z,101179.70
2019-05-05T21:04:28.444Z,101179.30
2019-05-05T21:06:56.873Z,101178.69
2019-05-05T21:09:25.305Z,101181.86
2019-05-05T21:11:54.742Z,101176.66
2019-05-05T21:14:33.713Z,101173.80
2019-05-05T21:16:54.759Z,101173.17
2019-05-05T21:19:24.744Z,101170.86
2019-05-05T21:21:55.073Z,101169.47
2019-05-05T21:24:24.033Z,101173.81
2019-05-05T21:26:56.596Z,101172.47
2019-05-05T21:29:37.698Z,101176.46
2019-05-05T21:31:55.549Z,101174.78
2019-05-05T21:34:24.900Z,101177.10
2019-05-05T21:36:54.179Z,101173.11
2019-05-05T21:39:24.765Z,101167.45
2019-05-05T21:41:52.949Z,101174.03
2019-05-05T21:44:21.403Z,101168.50
2019-05-05T21:46:49.822Z,101174.36
2019-05-05T21:49:18.252Z,101179.61
2019-05-05T21:51:48.752Z,101175.20
2019-05-05T21:54:18.762Z,101173.37
2019-05-05T21:56:54.846Z,101175.20
2019-05-05T21:59:23.704Z,101172.00
2019-05-05T22:01:52.293Z,101177.39
2019-05-05T22:04:20.740Z,101179.01
2019-05-05T22:06:49.187Z,101176.59
2019-05-05T22:09:17.605Z,101177.98
2019-05-05T22:11:46.013Z,101180.36
2019-05-05T22:14:14.360Z,101179.69
2019-05-05T22:16:44.590Z,101177.91
2019-05-05T22:19:14.613Z,101181.22
2019-05-05T22:21:44.832Z,101183.53
2019-05-05T22:24:15.865Z,101182.84
2019-05-05T22:26:44.914Z,101180.36
2019-05-05T22:29:16.802Z,101182.19
2019-05-05T22:31:44.081Z,101183.81
2019-05-05T22:34:14.549Z,101185.78
2019-05-05T22:36:44.823Z,101181.80
2019-05-05T22:39:16.568Z,101179.81
2019-05-05T22:41:44.512Z,101175.14
2019-05-05T22:44:13.887Z,101174.48
2019-05-05T22:46:42.768Z,101177.79
2019-05-05T22:49:11.207Z,101176.41
2019-05-05T22:51:39.977Z,101175.77
2019-05-05T22:54:08.415Z,101178.42
2019-05-05T22:56:36.857Z,101179.89
2019-05-05T22:59:05.826Z,101171.91
2019-05-05T23:01:34.323Z,101178.02
2019-05-05T23:04:07.409Z,101174.72
2019-05-05T23:06:37.833Z,101173.38
2019-05-05T23:09:08.907Z,101166.88
2019-05-05T23:11:37.344Z,101178.00
2019-05-05T23:14:24.747Z,101180.96
2019-05-05T23:17:13.418Z,101173.66
2019-05-05T23:19:46.532Z,101172.27
2019-05-05T23:22:28.833Z,101176.54
2019-05-05T23:24:58.869Z,101181.52
2019-05-05T23:27:45.258Z,101177.50
2019-05-05T23:30:15.807Z,101176.81
2019-05-05T23:32:44.533Z,101179.73
2019-05-05T23:35:14.262Z,101176.06
2019-05-05T23:37:44.874Z,101177.73
2019-05-05T23:40:19.202Z,101182.71
2019-05-05T23:42:47.568Z,101180.55
2019-05-05T23:45:16.415Z,101185.44
2019-05-05T23:47:44.857Z,101185.29
2019-05-05T23:50:13.499Z,101185.44
2019-05-05T23:52:44.264Z,101175.30
2019-05-05T23:55:14.232Z,101184.25
2019-05-05T23:57:43.733Z,101181.10
